Time;durP1;ratioP1;P1;durP2;ratioP2;P2;SDS_P1;SDS_P2;PMS_P1;PMS_P2;Temp;Humidity;BMP_temperature;BMP_pressure;BME280_temperature;BME280_humidity;BME280_pressure;Samples;Min_cycle;Max_cycle;Signal;HPM_P1;HPM_P2
2022/02/05 00:01:08;;;;;;;15.15;3.47;;;;;;;5.95;69.87;101754.44;5026819;28;20042;-65
2022/02/05 00:03:42;;;;;;;21.15;3.60;;;;;;;5.93;70.00;101759.34;5030212;28;20049;-66
2022/02/05 00:06:11;;;;;;;15.82;3.10;;;;;;;6.11;70.41;101764.47;5040106;28;20054;-67
2022/02/05 00:41:49;;;;;;;17.38;3.10;;;;;;;6.01;70.29;101763.53;5028578;28;20049;-66
2022/02/05 00:44:16;;;;;;;14.43;3.88;;;;;;;5.83;70.88;101770.19;5031569;28;20424;-67
2022/02/05 00:46:45;;;;;;;12.75;3.15;;;;;;;6.00;70.07;101772.84;5028134;28;20607;-67
2022/02/05 00:49:14;;;;;;;12.88;3.03;;;;;;;6.00;70.49;101770.91;5026523;28;20080;-67
2022/02/05 00:51:50;;;;;;;15.70;2.88;;;;;;;6.17;69.70;101763.41;5031048;28;20053;-67
2022/02/05 00:54:21;;;;;;;14.43;3.28;;;;;;;6.11;69.75;101766.38;5019378;28;20780;-66
2022/02/05 00:57:06;;;;;;;18.45;3.95;;;;;;;6.10;70.69;101757.34;5019892;28;20053;-67
2022/02/05 00:59:34;;;;;;;22.60;2.95;;;;;;;6.15;69.36;101762.03;5028395;28;20046;-67
2022/02/05 01:02:01;;;;;;;19.65;2.88;;;;;;;6.08;69.67;101756.78;5035203;28;20048;-67
2022/02/05 01:04:28;;;;;;;14.85;2.90;;;;;;;6.13;69.60;101756.00;5032989;28;20053;-66
2022/02/05 01:06:56;;;;;;;14.55;2.92;;;;;;;6.08;69.85;101759.53;5022153;28;20513;-65
2022/02/05 01:09:25;;;;;;;15.80;3.00;;;;;;;5.93;69.88;101761.28;5029443;28;20049;-66
2022/02/05 01:11:56;;;;;;;19.10;3.08;;;;;;;5.85;70.71;101761.72;5028389;28;20045;-66
2022/02/05 01:14:28;;;;;;;17.15;3.55;;;;;;;5.95;70.49;101780.97;5023360;28;20537;-67
2022/02/05 01:17:07;;;;;;;20.70;3.83;;;;;;;6.12;69.81;101768.84;5016783;28;20045;-65
2022/02/05 01:20:16;;;;;;;12.43;2.75;;;;;;;5.84;70.58;101776.50;5027476;28;20493;-66
2022/02/05 01:22:42;;;;;;;16.17;3.45;;;;;;;5.89;70.45;101782.84;5001623;28;20053;-67
2022/02/05 01:25:11;;;;;;;15.35;3.22;;;;;;;5.99;70.30;101782.94;5018134;28;20065;-66
2022/02/05 01:33:03;;;;;;;19.30;3.58;;;;;;;5.82;70.60;101795.84;5007609;28;20054;-66
2022/02/05 01:57:39;;;;;;;15.80;2.78;;;;;;;5.86;70.33;101840.75;5024917;28;20056;-66
2022/02/05 02:05:33;;;;;;;16.17;3.40;;;;;;;5.78;71.05;101815.75;5022130;28;20058;-67
2022/02/05 02:11:07;;;;;;;16.58;3.65;;;;;;;5.92;70.58;101825.22;5020566;28;20061;-67
2022/02/05 02:21:16;;;;;;;17.92;2.92;;;;;;;5.87;70.63;101828.75;5023936;28;20045;-66
2022/02/05 02:29:22;;;;;;;18.83;3.13;;;;;;;6.08;69.62;101833.38;4968717;28;20062;-66
2022/02/05 02:31:51;;;;;;;11.57;3.13;;;;;;;6.09;69.96;101842.38;5024674;28;20402;-68
2022/02/05 02:34:23;;;;;;;21.20;3.38;;;;;;;6.12;69.98;101836.41;5000228;28;20054;-67
2022/02/05 02:36:58;;;;;;;16.40;3.25;;;;;;;6.22;69.36;101831.88;5034911;28;20056;-67
2022/02/05 02:39:30;;;;;;;14.85;3.20;;;;;;;6.17;69.52;101834.53;5030784;28;20076;-67
2022/02/05 02:42:06;;;;;;;24.70;3.55;;;;;;;6.24;69.15;101842.56;5010962;28;20045;-66
2022/02/05 02:44:33;;;;;;;14.23;3.17;;;;;;;6.20;68.91;101839.53;5001644;28;20061;-67
2022/02/05 02:47:01;;;;;;;11.90;2.58;;;;;;;6.15;69.21;101846.84;5023446;28;20049;-66
2022/02/05 02:58:03;;;;;;;12.90;2.88;;;;;;;5.90;69.73;101844.63;5026330;28;20054;-67
2022/02/05 03:00:31;;;;;;;17.58;2.55;;;;;;;5.97;69.63;101853.47;5027090;28;20045;-66
2022/02/05 03:02:59;;;;;;;13.48;2.70;;;;;;;5.93;69.69;101851.50;5003182;28;20049;-66
2022/02/05 03:05:27;;;;;;;20.70;2.92;;;;;;;5.86;69.82;101859.09;5013545;28;20049;-67
2022/02/05 03:07:54;;;;;;;17.17;2.78;;;;;;;5.93;69.07;101857.78;5034764;28;20064;-67
2022/02/05 03:10:21;;;;;;;11.00;2.58;;;;;;;5.86;69.63;101862.63;5030080;28;20060;-66
2022/02/05 03:12:49;;;;;;;16.48;3.28;;;;;;;6.23;69.10;101860.88;5012799;28;20448;-66
2022/02/05 03:15:19;;;;;;;14.13;2.97;;;;;;;6.09;68.96;101858.78;5024205;28;20056;-66
2022/02/05 03:17:55;;;;;;;16.48;4.05;;;;;;;5.94;69.27;101869.56;5002919;28;20064;-66
2022/02/05 03:20:22;;;;;;;19.58;3.10;;;;;;;5.79;70.63;101872.88;5013660;28;20057;-66
2022/02/05 03:22:50;;;;;;;15.77;2.95;;;;;;;5.82;70.52;101875.13;5033022;28;20068;-66
2022/02/05 03:25:17;;;;;;;14.75;3.17;;;;;;;5.90;70.34;101882.91;5030662;28;20515;-66
2022/02/05 03:27:44;;;;;;;15.07;3.00;;;;;;;5.72;70.48;101880.44;5025940;28;20515;-66
2022/02/05 03:30:12;;;;;;;22.35;4.38;;;;;;;6.07;70.33;101880.09;5032329;28;20053;-66
2022/02/05 03:32:40;;;;;;;20.58;4.28;;;;;;;6.27;69.31;101896.75;5018836;28;20198;-67
2022/02/05 03:35:07;;;;;;;11.82;2.95;;;;;;;6.17;69.48;101889.25;5033812;28;20606;-67
2022/02/05 03:37:34;;;;;;;14.90;3.13;;;;;;;6.12;69.37;101882.91;5025817;28;20041;-67
2022/02/05 03:40:03;;;;;;;13.98;2.72;;;;;;;5.99;69.88;101895.06;5017765;28;20053;-66
2022/02/05 03:42:30;;;;;;;13.32;2.40;;;;;;;5.99;70.01;101892.34;5017025;28;20049;-66
2022/02/05 03:44:57;;;;;;;16.35;2.90;;;;;;;5.90;70.34;101902.06;5038456;28;20052;-67
2022/02/05 03:47:30;;;;;;;13.10;2.97;;;;;;;5.87;70.58;101894.38;5030082;28;20456;-67
2022/02/05 03:49:57;;;;;;;13.25;2.60;;;;;;;5.91;70.38;101892.75;5020511;28;20049;-66
2022/02/05 03:52:24;;;;;;;23.40;3.45;;;;;;;5.74;70.72;101890.06;5019506;28;20058;-66
2022/02/05 03:54:52;;;;;;;16.42;3.72;;;;;;;5.94;70.41;101896.91;5017600;28;20050;-66
2022/02/05 03:57:19;;;;;;;14.70;2.80;;;;;;;5.62;70.71;101896.72;5027867;28;20057;-67
2022/02/05 03:59:46;;;;;;;15.02;2.60;;;;;;;5.97;70.36;101893.66;5022988;28;20058;-66
2022/02/05 04:02:14;;;;;;;18.23;2.80;;;;;;;5.99;69.80;101907.91;5033920;28;20057;-66
2022/02/05 04:04:41;;;;;;;19.08;3.20;;;;;;;5.84;70.21;101908.53;5016438;28;20053;-67
2022/02/05 04:07:08;;;;;;;16.52;2.55;;;;;;;5.66;70.70;101906.06;5033823;28;20058;-67
2022/02/05 04:09:41;;;;;;;12.10;3.03;;;;;;;5.67;71.06;101900.34;5033032;28;20068;-66
2022/02/05 04:17:31;;;;;;;14.95;2.97;;;;;;;6.08;69.93;101898.19;5024397;28;20065;-66
2022/02/05 04:19:59;;;;;;;19.45;3.00;;;;;;;6.00;69.96;101904.91;5025777;28;20525;-67
2022/02/05 04:22:27;;;;;;;12.75;2.60;;;;;;;5.93;70.33;101906.19;5028531;28;20052;-66
2022/02/05 04:24:54;;;;;;;17.17;2.88;;;;;;;5.73;70.64;101898.50;5025638;28;20620;-66
2022/02/05 04:27:21;;;;;;;12.32;2.63;;;;;;;5.78;71.28;101895.00;5035666;28;20056;-67
2022/02/05 04:29:49;;;;;;;14.70;2.42;;;;;;;5.80;70.62;101899.16;5033139;28;20489;-67
2022/02/05 04:32:16;;;;;;;14.68;2.28;;;;;;;5.78;71.19;101895.84;5020011;28;20049;-66
2022/02/05 04:34:43;;;;;;;15.65;2.97;;;;;;;5.75;71.24;101896.38;5031097;28;20053;-67
2022/02/05 04:37:11;;;;;;;16.45;3.00;;;;;;;5.90;71.12;101891.13;5032832;28;20053;-66
2022/02/05 04:39:44;;;;;;;13.40;2.40;;;;;;;5.87;71.23;101899.84;5029363;28;20056;-68
2022/02/05 04:42:19;;;;;;;13.82;2.72;;;;;;;5.97;70.47;101896.38;5019496;28;20050;-67
2022/02/05 04:45:24;;;;;;;15.65;2.58;;;;;;;5.71;71.40;101900.66;5029635;28;20049;-67
2022/02/05 04:47:58;;;;;;;15.75;2.83;;;;;;;6.00;71.19;101904.09;5036326;28;20050;-67
2022/02/05 04:55:57;;;;;;;12.48;2.88;;;;;;;5.93;71.16;101925.34;5035241;28;20053;-66
2022/02/05 05:04:04;;;;;;;15.23;3.00;;;;;;;6.00;71.12;101915.03;5022293;28;20048;-68
2022/02/05 05:07:42;;;;;;;14.10;3.08;;;;;;;6.11;70.47;101914.06;5030991;28;20072;-66
2022/02/05 05:09:31;;;;;;;18.17;3.05;;;;;;;5.87;71.33;101918.97;5021623;28;20056;-66
2022/02/05 05:20:05;;;;;;;18.08;2.97;;;;;;;5.86;71.69;101917.31;5032511;28;20061;-66
2022/02/05 05:22:32;;;;;;;14.52;2.65;;;;;;;5.89;72.32;101922.28;5032347;28;20686;-67
2022/02/05 05:25:00;;;;;;;13.32;2.20;;;;;;;5.84;71.56;101924.13;5006797;28;20050;-66
2022/02/05 05:27:27;;;;;;;13.02;2.33;;;;;;;6.07;71.53;101923.84;5032687;28;20519;-66
2022/02/05 05:29:54;;;;;;;19.05;2.45;;;;;;;6.03;71.61;101930.94;5033787;28;20129;-66
2022/02/05 05:32:22;;;;;;;10.52;2.15;;;;;;;5.91;72.04;101928.31;5026430;28;20122;-66
2022/02/05 05:34:49;;;;;;;15.85;2.40;;;;;;;5.77;72.56;101934.38;5024748;28;20536;-66
2022/02/05 05:37:19;;;;;;;15.32;2.17;;;;;;;6.04;71.68;101933.41;5031193;28;20608;-68
2022/02/05 05:39:51;;;;;;;10.38;2.05;;;;;;;5.98;71.90;101925.41;5026883;28;20076;-66
2022/02/05 05:42:25;;;;;;;14.57;2.28;;;;;;;6.11;71.81;101931.31;5029706;28;20045;-67
2022/02/05 05:52:26;;;;;;;15.43;2.45;;;;;;;5.46;73.71;101928.47;5014229;28;20050;-67
2022/02/05 05:54:53;;;;;;;16.10;2.83;;;;;;;5.45;74.45;101932.28;5030705;28;20050;-67
2022/02/05 05:57:20;;;;;;;18.75;2.67;;;;;;;5.57;74.01;101938.47;5019421;28;20038;-67
2022/02/05 05:59:48;;;;;;;13.80;2.50;;;;;;;5.66;73.36;101936.97;5036905;28;20045;-66
2022/02/05 06:02:15;;;;;;;12.13;2.70;;;;;;;5.84;73.16;101926.84;5036859;28;20053;-67
2022/02/05 06:04:43;;;;;;;14.52;2.50;;;;;;;6.00;72.39;101925.97;4998067;28;20054;-66
2022/02/05 06:07:10;;;;;;;11.15;2.17;;;;;;;5.87;72.52;101929.91;5017407;28;20424;-67
2022/02/05 06:09:42;;;;;;;15.98;2.30;;;;;;;6.04;72.70;101938.88;5018327;28;20501;-67
2022/02/05 06:12:10;;;;;;;13.32;2.63;;;;;;;5.88;72.70;101958.06;5031876;28;20053;-67
2022/02/05 06:14:39;;;;;;;14.02;2.78;;;;;;;5.70;73.49;101957.25;5022718;28;20060;-66
2022/02/05 06:17:09;;;;;;;14.13;2.50;;;;;;;6.00;73.00;101956.06;5026180;28;20061;-66
2022/02/05 06:19:38;;;;;;;12.82;2.15;;;;;;;5.89;72.75;101952.38;5020693;28;20049;-67
2022/02/05 06:22:05;;;;;;;15.50;2.33;;;;;;;5.86;72.83;101946.56;5014537;28;20524;-66
2022/02/05 06:24:33;;;;;;;12.40;3.00;;;;;;;5.68;73.43;101955.84;5030713;28;20060;-66
2022/02/05 06:27:00;;;;;;;10.60;2.70;;;;;;;5.83;73.26;101950.63;5033256;28;20061;-66
2022/02/05 06:29:28;;;;;;;14.10;3.05;;;;;;;5.88;72.61;101964.38;5019006;28;20073;-66
2022/02/05 06:31:55;;;;;;;15.32;2.42;;;;;;;5.82;73.54;101973.56;5022465;28;20045;-66
2022/02/05 06:34:22;;;;;;;12.73;3.08;;;;;;;5.84;73.08;101970.59;5023502;28;20492;-67
2022/02/05 06:36:50;;;;;;;11.23;2.17;;;;;;;5.56;74.05;101976.97;5033960;28;20064;-66
2022/02/05 06:39:18;;;;;;;15.75;2.55;;;;;;;5.89;73.63;101978.88;5028363;28;20049;-66
2022/02/05 06:41:46;;;;;;;18.35;3.13;;;;;;;5.99;72.85;101966.16;5034431;28;20072;-66
2022/02/05 06:44:14;;;;;;;16.73;2.90;;;;;;;5.91;73.22;101972.06;5030872;28;20053;-67
2022/02/05 06:46:42;;;;;;;15.15;2.30;;;;;;;5.82;73.11;101967.25;5023114;28;20067;-68
2022/02/05 06:49:10;;;;;;;14.98;2.53;;;;;;;5.96;73.09;101974.88;5016863;28;20049;-67
2022/02/05 06:51:37;;;;;;;17.10;2.97;;;;;;;6.15;72.29;101973.50;5029034;28;20496;-66
2022/02/05 06:54:05;;;;;;;17.75;2.60;;;;;;;5.69;73.04;101990.28;5030238;28;20042;-66
2022/02/05 06:56:32;;;;;;;17.10;2.38;;;;;;;5.65;73.75;101991.84;5029009;28;20060;-66
2022/02/05 06:58:59;;;;;;;11.40;2.38;;;;;;;5.59;74.42;102006.53;5015489;28;20076;-66
2022/02/05 07:01:26;;;;;;;13.68;2.53;;;;;;;5.62;74.26;102016.97;5019633;28;20052;-66
2022/02/05 07:03:54;;;;;;;12.20;2.63;;;;;;;5.64;74.65;102012.91;5017812;28;20057;-66
2022/02/05 07:06:21;;;;;;;14.10;2.70;;;;;;;5.44;75.29;102022.69;5038923;28;20053;-67
2022/02/05 07:08:48;;;;;;;25.73;3.47;;;;;;;5.48;75.33;102019.22;5021348;28;20401;-66
2022/02/05 07:11:16;;;;;;;13.63;2.67;;;;;;;5.42;75.65;102022.13;5006569;28;20125;-67
2022/02/05 07:13:43;;;;;;;16.70;3.05;;;;;;;5.59;75.03;102020.22;5006308;28;20496;-67
2022/02/05 07:16:16;;;;;;;16.35;3.60;;;;;;;5.61;74.68;102027.06;5029717;28;20083;-66
2022/02/05 07:21:16;;;;;;;15.15;2.38;;;;;;;5.55;75.51;102024.50;5034486;28;20054;-67
2022/02/05 07:29:15;;;;;;;20.50;2.88;;;;;;;5.90;75.29;102035.19;5025279;28;20060;-66
2022/02/05 07:31:55;;;;;;;22.63;6.05;;;;;;;5.83;75.29;102037.28;5020754;28;20053;-66
2022/02/05 07:34:28;;;;;;;23.30;6.32;;;;;;;6.03;74.71;102038.44;5018043;28;20073;-67
2022/02/05 07:37:02;;;;;;;14.40;3.20;;;;;;;6.02;74.23;102031.28;5023511;28;20538;-66
2022/02/05 07:39:33;;;;;;;23.75;8.07;;;;;;;6.14;73.74;102031.19;5021286;28;20066;-66
2022/02/05 07:42:02;;;;;;;17.10;3.38;;;;;;;5.94;74.62;102036.38;5017277;28;20049;-67
2022/02/05 07:44:29;;;;;;;12.17;2.70;;;;;;;5.84;75.31;102031.56;5025540;28;20053;-67
2022/02/05 07:47:00;;;;;;;18.15;3.20;;;;;;;6.10;74.58;102047.25;5025068;28;20559;-66
2022/02/05 07:49:34;;;;;;;18.52;2.97;;;;;;;5.85;74.98;102043.31;5025320;28;20057;-65
2022/02/05 07:52:03;;;;;;;11.80;2.80;;;;;;;5.71;75.08;102053.75;5027583;28;20485;-67
2022/02/05 07:54:30;;;;;;;19.48;4.03;;;;;;;5.78;75.68;102053.56;5016436;28;20501;-67
2022/02/05 07:56:58;;;;;;;17.15;3.10;;;;;;;5.78;75.38;102057.16;5016888;28;20054;-66
2022/02/05 07:59:25;;;;;;;19.13;3.58;;;;;;;6.12;74.78;102050.56;5010315;28;20069;-66
2022/02/05 08:01:52;;;;;;;16.30;2.90;;;;;;;6.11;74.17;102059.03;5006476;28;20069;-66
2022/02/05 08:04:20;;;;;;;13.25;2.53;;;;;;;6.07;74.24;102052.41;5029656;28;20054;-66
2022/02/05 08:06:48;;;;;;;15.07;2.78;;;;;;;6.08;74.30;102052.19;5020491;28;20058;-66
2022/02/05 08:12:01;;;;;;;16.60;2.95;;;;;;;5.95;74.82;102057.16;5019907;28;20061;-67
2022/02/05 08:14:30;;;;;;;17.23;3.22;;;;;;;5.87;75.46;102054.84;5022241;28;20489;-66
2022/02/05 08:17:02;;;;;;;15.25;3.35;;;;;;;6.24;74.40;102055.97;5006950;28;20041;-67
2022/02/05 08:19:29;;;;;;;14.38;2.90;;;;;;;6.19;74.35;102051.22;5020734;28;20056;-66
2022/02/05 08:22:17;;;;;;;16.80;2.97;;;;;;;6.03;74.59;102046.63;5027219;28;20057;-66
2022/02/05 08:24:45;;;;;;;16.55;2.95;;;;;;;5.74;76.20;102043.13;5019678;28;20042;-66
2022/02/05 08:27:12;;;;;;;14.18;3.20;;;;;;;5.94;75.58;102039.94;5029416;28;20046;-66
2022/02/05 08:29:53;;;;;;;18.70;3.70;;;;;;;5.88;76.05;102034.63;5020325;28;20060;-66
2022/02/05 08:32:23;;;;;;;12.70;3.60;;;;;;;5.98;75.89;102032.88;5007990;28;20057;-66
2022/02/05 08:34:51;;;;;;;18.95;3.05;;;;;;;6.12;75.51;102028.69;5033044;28;20399;-66
2022/02/05 08:37:18;;;;;;;11.15;2.63;;;;;;;6.03;75.26;102038.44;5033286;28;20104;-66
2022/02/05 08:39:45;;;;;;;18.48;4.18;;;;;;;5.95;75.74;102036.09;5013641;28;20153;-66
2022/02/05 08:42:12;;;;;;;17.10;2.58;;;;;;;5.91;76.23;102043.16;5001711;28;20053;-68
2022/02/05 08:44:40;;;;;;;14.75;3.13;;;;;;;6.06;76.72;102043.41;5037035;28;20063;-67
2022/02/05 08:47:07;;;;;;;20.17;4.43;;;;;;;6.02;76.48;102044.13;5024228;28;20041;-65
2022/02/05 08:49:34;;;;;;;15.10;3.55;;;;;;;6.07;76.17;102047.78;5025338;28;20058;-66
2022/02/05 08:52:05;;;;;;;15.68;2.50;;;;;;;5.89;76.54;102039.88;5008505;28;20053;-66
2022/02/05 08:54:33;;;;;;;12.57;3.10;;;;;;;5.81;77.03;102047.59;5012072;28;20063;-66
2022/02/05 08:57:00;;;;;;;18.00;4.25;;;;;;;5.87;76.86;102047.47;5032481;28;20382;-66
2022/02/05 08:59:32;;;;;;;17.20;3.63;;;;;;;5.98;77.12;102043.00;5030649;28;20057;-67
2022/02/05 09:02:12;;;;;;;16.88;3.83;;;;;;;6.09;76.49;102053.81;5009150;28;20057;-66
2022/02/05 09:07:16;;;;;;;15.65;3.40;;;;;;;6.12;76.29;102056.06;5034343;28;20061;-68
2022/02/05 09:15:07;;;;;;;13.80;3.40;;;;;;;6.51;77.85;102063.19;5035604;28;20049;-67
2022/02/05 09:17:35;;;;;;;24.70;5.78;;;;;;;7.54;78.37;102045.69;5047220;28;20064;-67
2022/02/05 09:20:03;;;;;;;18.23;3.35;;;;;;;7.40;73.03;102048.03;5032412;28;20833;-66
2022/02/05 09:22:31;;;;;;;19.20;5.70;;;;;;;7.65;73.47;102055.66;5031988;28;20041;-66
2022/02/05 09:24:58;;;;;;;27.00;9.90;;;;;;;7.84;73.74;102056.91;5028160;28;20049;-66
2022/02/05 09:27:29;;;;;;;20.30;5.93;;;;;;;7.94;72.65;102057.81;5025589;28;20048;-63
2022/02/05 09:30:03;;;;;;;12.77;3.75;;;;;;;7.96;70.77;102063.03;5031685;28;20103;-67
2022/02/05 09:32:31;;;;;;;11.40;3.38;;;;;;;8.07;71.00;102058.44;5024589;28;20049;-68
2022/02/05 09:34:58;;;;;;;12.13;4.10;;;;;;;7.86;70.32;102052.78;5023884;28;20054;-67
2022/02/05 09:37:27;;;;;;;16.02;3.80;;;;;;;8.05;70.56;102055.13;5027181;28;20496;-69
2022/02/05 09:39:54;;;;;;;26.42;10.32;;;;;;;8.08;69.77;102055.44;5023899;28;20056;-69
2022/02/05 09:42:21;;;;;;;26.00;3.97;;;;;;;7.69;70.46;102057.59;5026719;28;20552;-68
2022/02/05 09:44:49;;;;;;;25.70;5.13;;;;;;;7.56;71.06;102057.22;5019447;28;20057;-68
2022/02/05 09:47:16;;;;;;;19.88;5.90;;;;;;;7.83;70.82;102049.75;5032317;28;20061;-69
2022/02/05 09:49:44;;;;;;;20.23;4.40;;;;;;;7.87;70.71;102056.38;5018960;28;20057;-68
2022/02/05 09:52:20;;;;;;;15.68;3.33;;;;;;;7.36;72.05;102046.03;5024669;28;20485;-67
2022/02/05 09:54:47;;;;;;;20.60;6.45;;;;;;;7.62;72.76;102057.00;5027546;28;20046;-68
2022/02/05 09:57:15;;;;;;;13.02;3.90;;;;;;;7.92;71.44;102059.97;5028603;28;20516;-68
2022/02/05 09:59:46;;;;;;;17.52;3.78;;;;;;;7.74;71.96;102060.38;5019069;28;20618;-67
2022/02/05 10:02:35;;;;;;;15.95;3.17;;;;;;;7.83;71.45;102064.31;5012647;28;20530;-67
2022/02/05 10:05:09;;;;;;;15.23;3.42;;;;;;;7.79;70.80;102071.38;5024577;28;20056;-69
2022/02/05 10:08:03;;;;;;;15.82;3.22;;;;;;;7.89;71.82;102068.75;5032653;28;20056;-67
2022/02/05 10:10:42;;;;;;;13.98;3.47;;;;;;;7.82;71.46;102076.38;5029388;28;20373;-69
2022/02/05 10:13:11;;;;;;;14.18;3.20;;;;;;;7.79;72.12;102078.81;5020648;28;20052;-69
2022/02/05 10:15:41;;;;;;;16.48;3.67;;;;;;;7.86;71.38;102072.00;5022715;28;20045;-68
2022/02/05 10:18:28;;;;;;;20.23;4.43;;;;;;;7.79;72.13;102068.66;5031752;28;20520;-69
2022/02/05 10:20:57;;;;;;;22.05;8.35;;;;;;;8.09;71.05;102068.03;4991757;28;20640;-67
2022/02/05 10:23:26;;;;;;;14.30;4.10;;;;;;;8.24;70.24;102072.84;5016612;28;20050;-66
2022/02/05 10:25:54;;;;;;;17.20;4.53;;;;;;;8.00;70.36;102070.47;5003034;28;20055;-67
2022/02/05 10:28:22;;;;;;;18.42;6.57;;;;;;;8.38;70.41;102083.09;5035044;28;20041;-67
2022/02/05 10:30:53;;;;;;;23.52;6.53;;;;;;;8.76;69.17;102079.16;5007277;28;20064;-64
2022/02/05 10:33:32;;;;;;;20.65;3.17;;;;;;;8.65;68.88;102086.53;4997958;28;20054;-66
2022/02/05 10:36:21;;;;;;;14.43;3.83;;;;;;;8.86;68.38;102085.53;5024358;28;20056;-67
2022/02/05 10:39:10;;;;;;;13.63;3.83;;;;;;;8.91;67.39;102082.81;4995207;28;20560;-66
2022/02/05 10:44:32;;;;;;;12.82;2.90;;;;;;;9.16;66.33;102089.47;5030124;28;20420;-68
2022/02/05 10:46:59;;;;;;;16.10;3.50;;;;;;;9.35;66.06;102094.19;5012931;28;20595;-66
2022/02/05 10:49:48;;;;;;;14.50;3.15;;;;;;;9.39;65.75;102091.75;4990483;28;20042;-66
2022/02/05 10:52:33;;;;;;;17.98;3.35;;;;;;;9.37;65.20;102097.50;5025279;28;20037;-66
2022/02/05 10:55:12;;;;;;;17.10;3.15;;;;;;;9.03;66.58;102101.81;5029100;28;20569;-66
2022/02/05 10:58:09;;;;;;;14.35;2.90;;;;;;;8.87;66.36;102098.16;5022989;28;20054;-65
2022/02/05 11:05:51;;;;;;;14.40;2.58;;;;;;;8.48;68.47;102107.88;5027824;28;20057;-64
2022/02/05 11:08:20;;;;;;;15.65;4.13;;;;;;;8.27;68.95;102108.84;5030392;28;20057;-65
2022/02/05 11:21:44;;;;;;;10.05;2.53;;;;;;;9.26;70.82;102100.53;5016977;28;20049;-67
2022/02/05 11:24:12;;;;;;;14.93;2.50;;;;;;;9.37;68.46;102099.44;4981481;28;20440;-65
2022/02/05 11:26:40;;;;;;;22.05;2.70;;;;;;;9.62;66.17;102108.56;5011421;28;20061;-73
2022/02/05 11:29:07;;;;;;;12.23;2.30;;;;;;;9.94;66.94;102094.53;5008891;28;20060;-68
2022/02/05 11:31:40;;;;;;;12.38;1.98;;;;;;;9.95;63.53;102093.44;5021807;28;20050;-70
2022/02/05 11:34:26;;;;;;;12.65;2.17;;;;;;;9.98;62.52;102093.72;5023530;28;20058;-69
2022/02/05 11:37:06;;;;;;;15.50;2.33;;;;;;;10.16;62.15;102090.41;5022502;28;20053;-65
2022/02/05 11:39:49;;;;;;;15.60;2.53;;;;;;;10.14;62.01;102078.88;4994735;28;20394;-65
2022/02/05 11:42:23;;;;;;;20.95;2.67;;;;;;;10.34;61.64;102078.00;5024680;28;20516;-65
2022/02/05 11:44:51;;;;;;;12.07;2.42;;;;;;;10.30;61.66;102079.69;5001772;28;20046;-66
2022/02/05 11:47:18;;;;;;;12.38;2.40;;;;;;;10.75;60.55;102081.47;5007939;28;20057;-64
2022/02/05 11:49:51;;;;;;;12.63;2.38;;;;;;;10.73;58.95;102084.50;5021228;28;20053;-66
2022/02/05 11:52:37;;;;;;;12.63;2.90;;;;;;;10.47;59.29;102074.66;5027822;28;20045;-64
2022/02/05 11:55:13;;;;;;;11.63;2.58;;;;;;;10.42;60.01;102077.44;5033837;28;20053;-65
2022/02/05 11:57:43;;;;;;;20.45;3.55;;;;;;;10.14;60.52;102070.63;5013512;28;20077;-64
2022/02/05 12:00:11;;;;;;;15.63;2.88;;;;;;;10.10;60.46;102061.25;5032524;28;20366;-64
2022/02/05 12:02:43;;;;;;;16.40;3.03;;;;;;;10.45;59.71;102071.38;5034290;28;20080;-64
2022/02/05 12:05:11;;;;;;;16.55;5.03;;;;;;;10.48;58.79;102068.03;5002559;28;20054;-64
2022/02/05 12:08:17;;;;;;;16.67;2.97;;;;;;;10.71;58.72;102072.09;5029053;28;20057;-63
2022/02/05 12:10:52;;;;;;;16.58;2.25;;;;;;;10.59;57.23;102055.06;5020529;28;20066;-61
2022/02/05 12:13:35;;;;;;;14.13;3.10;;;;;;;10.38;56.66;102053.47;4999106;28;20448;-62
2022/02/05 12:16:02;;;;;;;10.55;2.25;;;;;;;10.12;58.20;102052.72;5003479;28;20607;-63
2022/02/05 12:18:31;;;;;;;21.05;5.75;;;;;;;10.31;58.33;102051.03;5033023;28;20037;-62
2022/02/05 12:26:13;;;;;;;29.40;6.28;;;;;;;10.48;56.42;102047.97;5037393;28;20045;-62
2022/02/05 12:28:42;;;;;;;24.83;3.60;;;;;;;10.02;55.63;102049.94;5033104;28;20044;-64
2022/02/05 12:31:18;;;;;;;20.80;3.53;;;;;;;10.05;55.93;102038.38;5019641;28;20531;-66
2022/02/05 12:34:01;;;;;;;21.88;3.80;;;;;;;10.06;56.62;102040.00;5030802;28;20049;-64
2022/02/05 12:36:42;;;;;;;13.85;2.25;;;;;;;9.62;56.62;102041.72;5017068;28;20053;-64
2022/02/05 12:39:16;;;;;;;14.07;2.42;;;;;;;9.87;56.44;102030.69;5030154;28;20508;-63
2022/02/05 12:42:13;;;;;;;11.98;2.03;;;;;;;9.61;55.88;102027.13;4999934;28;20042;-66
2022/02/05 12:44:42;;;;;;;11.55;2.15;;;;;;;9.52;56.89;102030.72;5022493;28;20449;-66
2022/02/05 12:47:26;;;;;;;16.02;2.88;;;;;;;9.74;55.95;102026.59;5026004;28;20053;-69
2022/02/05 12:50:08;;;;;;;10.93;2.38;;;;;;;9.83;54.57;102026.84;5026315;28;20046;-67
2022/02/05 12:52:36;;;;;;;8.50;1.83;;;;;;;9.94;54.02;102023.81;5030172;28;20060;-66
2022/02/05 12:55:04;;;;;;;15.32;3.00;;;;;;;10.23;53.47;102022.13;5029965;28;20072;-71
2022/02/05 12:57:32;;;;;;;27.35;8.18;;;;;;;10.38;54.37;102021.25;5032395;28;20045;-66
2022/02/05 13:00:10;;;;;;;17.70;3.22;;;;;;;10.32;52.62;102033.38;5016799;28;20049;-66
2022/02/05 13:02:37;;;;;;;13.98;3.17;;;;;;;10.41;52.62;102030.91;5027931;28;20053;-67
2022/02/05 13:05:05;;;;;;;15.18;3.80;;;;;;;10.34;50.93;102031.16;5026818;28;20796;-64
2022/02/05 13:07:39;;;;;;;13.40;2.33;;;;;;;10.22;50.25;102030.66;5019250;28;20042;-68
2022/02/05 13:10:07;;;;;;;21.23;5.35;;;;;;;10.31;50.33;102026.22;5031028;28;20045;-66
2022/02/05 13:12:40;;;;;;;7.25;1.95;;;;;;;10.17;47.52;102026.00;5029005;28;20507;-67
2022/02/05 13:26:52;;;;;;;8.40;1.42;;;;;;;9.65;47.56;102032.91;5026544;28;20054;-65
2022/02/05 13:29:21;;;;;;;11.50;1.50;;;;;;;9.81;47.34;102023.53;5020279;28;20053;-67
2022/02/05 13:34:36;;;;;;;8.32;1.75;;;;;;;9.61;47.52;102020.78;5025981;28;20041;-67
2022/02/05 13:37:17;;;;;;;8.15;1.65;;;;;;;9.66;48.42;102023.56;5029163;28;20042;-67
2022/02/05 13:39:58;;;;;;;10.77;1.77;;;;;;;9.83;48.12;102013.09;5026320;28;20484;-67
2022/02/05 13:42:31;;;;;;;19.70;4.20;;;;;;;10.02;48.97;102016.91;5030087;28;20049;-63
2022/02/05 13:45:19;;;;;;;17.52;4.38;;;;;;;10.42;49.04;102007.75;5033499;28;20056;-66
2022/02/05 13:47:52;;;;;;;16.33;3.13;;;;;;;10.56;49.13;101995.84;4999746;28;20057;-64
2022/02/05 13:50:24;;;;;;;17.77;3.47;;;;;;;11.01;49.45;101990.09;5004056;28;20072;-65
2022/02/05 13:53:00;;;;;;;10.63;2.40;;;;;;;10.58;47.88;101987.31;5025908;28;20060;-62
2022/02/05 13:55:36;;;;;;;11.25;2.65;;;;;;;10.42;48.88;101993.97;5029766;28;20456;-65
2022/02/05 13:58:09;;;;;;;13.80;2.53;;;;;;;10.38;48.67;101981.88;5012724;28;20060;-64
2022/02/05 14:00:36;;;;;;;7.53;1.70;;;;;;;10.28;48.47;101987.41;5026725;28;20053;-65
2022/02/05 14:03:05;;;;;;;13.45;2.53;;;;;;;10.20;48.67;101984.13;5032381;28;20496;-70
2022/02/05 14:05:32;;;;;;;10.63;2.17;;;;;;;10.15;49.31;101983.31;5033702;28;20058;-66
2022/02/05 14:07:59;;;;;;;12.15;2.25;;;;;;;10.52;48.11;101978.22;5014596;28;20053;-65
2022/02/05 14:10:27;;;;;;;6.03;1.35;;;;;;;10.55;46.42;101983.16;5023480;28;20067;-64
2022/02/05 14:12:56;;;;;;;10.38;1.95;;;;;;;10.51;46.81;101984.03;5025662;28;20050;-62
2022/02/05 14:15:28;;;;;;;8.88;1.77;;;;;;;10.16;49.27;101988.53;5030429;28;20049;-64
2022/02/05 14:18:13;;;;;;;14.88;2.00;;;;;;;10.52;49.08;101977.41;5034837;28;20045;-63
2022/02/05 14:20:52;;;;;;;9.32;2.20;;;;;;;10.63;49.22;101981.75;5022142;28;20057;-63
2022/02/05 14:23:22;;;;;;;8.75;1.50;;;;;;;10.53;48.17;101977.13;5032741;28;20050;-64
2022/02/05 14:26:13;;;;;;;10.35;2.47;;;;;;;10.48;48.01;101971.63;5030932;28;20568;-64
2022/02/05 14:28:46;;;;;;;8.38;2.00;;;;;;;10.57;48.66;101969.09;5032976;28;20045;-62
2022/02/05 14:31:20;;;;;;;8.18;1.45;;;;;;;10.61;46.44;101971.03;5028682;28;20064;-62
2022/02/05 14:41:59;;;;;;;6.47;1.48;;;;;;;10.80;45.93;101972.03;5017247;28;20057;-63
2022/02/05 14:44:27;;;;;;;6.97;1.83;;;;;;;10.66;46.10;101982.03;5045572;28;20164;-64
2022/02/05 14:46:55;;;;;;;10.05;1.83;;;;;;;10.63;46.52;101982.59;5022885;28;20050;-63
2022/02/05 14:49:23;;;;;;;11.48;2.25;;;;;;;10.65;46.75;101976.81;5032141;28;20432;-62
2022/02/05 14:51:50;;;;;;;9.45;2.35;;;;;;;10.51;47.49;101984.03;5023393;28;20520;-62